createdAt,value
2022-08-27T00:01:24.316Z,3.38
2022-08-27T00:03:54.275Z,3.92
2022-08-27T00:06:22.410Z,3.70
2022-08-27T00:08:50.370Z,3.83
2022-08-27T00:11:18.691Z,3.90
2022-08-27T00:13:46.513Z,3.85
2022-08-27T00:16:16.867Z,3.38
2022-08-27T00:18:47.859Z,3.47
2022-08-27T00:21:17.028Z,3.42
2022-08-27T00:23:44.433Z,3.35
2022-08-27T00:26:12.230Z,5.13
2022-08-27T00:28:40.280Z,3.67
2022-08-27T00:31:07.881Z,3.83
2022-08-27T00:33:38.920Z,3.75
2022-08-27T00:36:06.461Z,3.75
2022-08-27T00:38:35.024Z,3.45
2022-08-27T00:41:02.912Z,3.85
2022-08-27T00:43:32.958Z,4.18
2022-08-27T00:46:07.820Z,3.88
2022-08-27T00:48:36.565Z,4.18
2022-08-27T00:51:04.864Z,4.07
2022-08-27T00:53:33.647Z,3.80
2022-08-27T00:56:10.716Z,4.85
2022-08-27T00:58:41.194Z,3.60
2022-08-27T01:01:11.504Z,3.67
2022-08-27T01:03:40.609Z,4.25
2022-08-27T01:06:11.332Z,4.03
2022-08-27T01:08:53.829Z,3.80
2022-08-27T01:11:21.929Z,3.92
2022-08-27T01:14:00.270Z,4.47
2022-08-27T01:16:34.355Z,4.85
2022-08-27T01:19:04.895Z,4.30
2022-08-27T01:21:55.100Z,4.22
2022-08-27T01:24:28.377Z,5.28
2022-08-27T01:26:58.220Z,4.30
2022-08-27T01:29:26.324Z,5.63
2022-08-27T01:31:53.698Z,4.45
2022-08-27T01:34:21.121Z,6.00
2022-08-27T01:36:48.420Z,5.68
2022-08-27T01:39:16.610Z,5.75
2022-08-27T01:41:45.263Z,6.10
2022-08-27T01:44:12.673Z,7.15
2022-08-27T01:46:40.703Z,6.63
2022-08-27T01:49:10.648Z,8.05
2022-08-27T01:51:38.238Z,7.22
2022-08-27T01:54:06.447Z,5.47
2022-08-27T01:56:33.885Z,7.32
2022-08-27T01:59:01.416Z,6.30
2022-08-27T02:01:28.917Z,6.60
2022-08-27T02:03:57.014Z,8.70
2022-08-27T02:06:24.801Z,8.40
2022-08-27T02:08:54.879Z,7.68
2022-08-27T02:11:22.247Z,6.82
2022-08-27T02:13:49.778Z,7.40
2022-08-27T02:16:17.810Z,7.03
2022-08-27T02:18:45.131Z,7.90
2022-08-27T02:21:13.038Z,7.13
2022-08-27T02:23:42.240Z,8.27
2022-08-27T02:26:09.565Z,7.75
2022-08-27T02:28:37.283Z,8.80
2022-08-27T02:31:05.363Z,8.75
2022-08-27T02:33:35.660Z,8.32
2022-08-27T02:36:03.726Z,7.38
2022-08-27T02:38:33.361Z,6.40
2022-08-27T02:41:01.081Z,7.40
2022-08-27T02:43:28.575Z,6.63
2022-08-27T02:45:56.130Z,6.70
2022-08-27T02:48:24.815Z,5.80
2022-08-27T02:50:52.337Z,5.88
2022-08-27T02:53:20.271Z,6.63
2022-08-27T02:55:47.985Z,7.70
2022-08-27T02:58:18.225Z,6.68
2022-08-27T03:00:45.914Z,7.03
2022-08-27T03:03:13.726Z,6.47
2022-08-27T03:05:41.125Z,5.25
2022-08-27T03:08:08.990Z,5.40
2022-08-27T03:10:36.440Z,5.43
2022-08-27T03:13:04.423Z,4.82
2022-08-27T03:15:32.111Z,5.40
2022-08-27T03:18:34.742Z,4.97
2022-08-27T03:21:03.701Z,3.90
2022-08-27T03:23:35.697Z,5.53
2022-08-27T03:26:05.404Z,4.35
2022-08-27T03:28:36.349Z,3.92
2022-08-27T03:31:07.931Z,3.97
2022-08-27T03:33:38.789Z,4.10
2022-08-27T03:36:07.649Z,4.00
2022-08-27T03:38:35.947Z,3.85
2022-08-27T03:41:04.630Z,3.45
2022-08-27T03:43:32.325Z,3.97
2022-08-27T03:46:01.400Z,3.78
2022-08-27T03:48:32.060Z,3.65
2022-08-27T03:51:05.232Z,3.63
2022-08-27T03:53:33.012Z,3.55
2022-08-27T03:56:01.862Z,3.53
2022-08-27T03:58:29.476Z,3.78
2022-08-27T04:00:56.840Z,3.75
2022-08-27T04:03:24.331Z,4.03
2022-08-27T04:05:54.170Z,4.00
2022-08-27T04:08:23.155Z,4.20
2022-08-27T04:10:50.811Z,3.85
2022-08-27T04:13:18.636Z,3.63
2022-08-27T04:15:52.895Z,4.38
2022-08-27T04:18:22.408Z,3.50
2022-08-27T04:20:52.509Z,4.20
2022-08-27T04:23:23.066Z,3.80
2022-08-27T04:25:50.950Z,4.38
2022-08-27T04:28:18.520Z,3.72
2022-08-27T04:30:47.084Z,4.32
2022-08-27T04:33:15.087Z,4.20
2022-08-27T04:35:43.276Z,3.92
2022-08-27T04:38:10.968Z,4.10
2022-08-27T04:40:57.598Z,3.97
2022-08-27T04:43:28.318Z,3.95
2022-08-27T04:45:57.567Z,3.78
2022-08-27T04:48:25.885Z,4.18
2022-08-27T04:50:53.486Z,3.78
2022-08-27T04:53:30.146Z,4.13
2022-08-27T04:56:00.946Z,3.90
2022-08-27T04:58:28.613Z,3.30
2022-08-27T05:01:01.231Z,3.75
2022-08-27T05:03:31.550Z,3.92
2022-08-27T05:06:01.976Z,3.67
2022-08-27T05:08:30.459Z,3.72
2022-08-27T05:10:58.013Z,3.47
2022-08-27T05:13:28.815Z,3.50
2022-08-27T05:16:14.542Z,3.45
2022-08-27T05:18:48.238Z,3.92
2022-08-27T05:21:31.292Z,3.17
2022-08-27T05:24:04.244Z,3.17
2022-08-27T05:26:35.484Z,3.65
2022-08-27T05:29:05.230Z,3.90
2022-08-27T05:31:33.730Z,4.03
2022-08-27T05:34:01.803Z,4.05
2022-08-27T05:36:38.558Z,3.35
2022-08-27T05:39:15.581Z,3.60
2022-08-27T05:41:43.293Z,3.83
2022-08-27T05:44:37.194Z,3.78
2022-08-27T05:46:58.854Z,3.40
2022-08-27T05:49:26.474Z,3.67
2022-08-27T05:51:53.926Z,3.88
2022-08-27T05:54:21.760Z,3.75
2022-08-27T05:56:50.124Z,3.10
2022-08-27T05:59:56.948Z,3.00
2022-08-27T06:02:25.684Z,3.63
2022-08-27T06:04:53.853Z,3.58
2022-08-27T06:07:22.408Z,3.15
2022-08-27T06:09:50.066Z,3.42
2022-08-27T06:12:17.582Z,3.60
2022-08-27T06:14:45.488Z,3.30
2022-08-27T06:17:13.182Z,3.50
2022-08-27T06:19:42.591Z,3.33
2022-08-27T06:22:10.968Z,3.53
2022-08-27T06:24:40.641Z,3.60
2022-08-27T06:27:11.424Z,3.58
2022-08-27T06:29:39.730Z,3.92
2022-08-27T06:32:08.175Z,3.33
2022-08-27T06:34:36.771Z,3.45
2022-08-27T06:37:04.989Z,3.92
2022-08-27T06:39:32.941Z,4.38
2022-08-27T06:42:00.904Z,3.70
2022-08-27T06:44:28.486Z,5.68
2022-08-27T06:46:56.839Z,4.15
2022-08-27T06:49:24.526Z,3.70
2022-08-27T06:51:51.928Z,3.65
2022-08-27T06:54:20.231Z,4.25
2022-08-27T06:56:49.637Z,4.45
2022-08-27T06:59:19.219Z,3.70
2022-08-27T07:01:49.563Z,3.42
2022-08-27T07:04:30.778Z,3.72
2022-08-27T07:07:02.555Z,3.83
2022-08-27T07:09:32.760Z,3.58
2022-08-27T07:12:01.564Z,3.60
2022-08-27T07:14:34.207Z,3.42
2022-08-27T07:17:05.129Z,3.05
2022-08-27T07:19:34.512Z,3.58
2022-08-27T07:22:08.514Z,3.03
2022-08-27T07:24:40.638Z,3.15
2022-08-27T07:27:08.883Z,3.30
2022-08-27T07:29:38.319Z,3.22
2022-08-27T07:32:06.872Z,3.35
2022-08-27T07:34:35.435Z,3.50
2022-08-27T07:37:35.162Z,3.50
2022-08-27T07:40:12.360Z,3.28
2022-08-27T07:43:01.942Z,3.58
2022-08-27T07:45:30.418Z,3.53
2022-08-27T07:47:58.071Z,3.38
2022-08-27T07:50:25.701Z,3.10
2022-08-27T07:52:54.829Z,3.50
2022-08-27T07:55:22.589Z,4.07
2022-08-27T07:57:50.212Z,3.53
2022-08-27T08:00:17.739Z,3.17
2022-08-27T08:02:47.446Z,3.40
2022-08-27T08:05:16.835Z,3.13
2022-08-27T08:07:44.869Z,3.00
2022-08-27T08:10:12.922Z,3.40
2022-08-27T08:12:41.870Z,2.65
2022-08-27T08:15:15.738Z,4.20
2022-08-27T08:17:44.991Z,6.32
2022-08-27T08:20:23.988Z,4.10
2022-08-27T08:22:55.063Z,3.30
2022-08-27T08:25:23.302Z,8.27
2022-08-27T08:27:51.629Z,5.63
2022-08-27T08:30:20.068Z,3.47
2022-08-27T08:32:48.955Z,3.30
2022-08-27T08:35:18.177Z,3.20
2022-08-27T08:37:47.538Z,3.53
2022-08-27T08:40:35.942Z,3.72
2022-08-27T08:43:07.345Z,3.28
2022-08-27T08:45:38.342Z,4.95
2022-08-27T08:48:12.522Z,3.47
2022-08-27T08:51:12.009Z,3.17
2022-08-27T08:53:54.598Z,3.60
2022-08-27T08:56:32.830Z,3.15
2022-08-27T08:59:09.654Z,3.03
2022-08-27T09:01:41.329Z,3.50
2022-08-27T09:04:18.093Z,3.35
2022-08-27T09:07:02.784Z,5.63
2022-08-27T09:09:36.618Z,3.75
2022-08-27T09:12:15.541Z,6.43
2022-08-27T09:14:55.586Z,2.92
2022-08-27T09:17:25.036Z,3.03
2022-08-27T09:19:54.493Z,3.58
2022-08-27T09:22:42.035Z,4.55
2022-08-27T09:25:40.453Z,3.50
2022-08-27T09:28:32.949Z,3.40
2022-08-27T09:31:10.633Z,2.50
2022-08-27T09:33:53.562Z,3.42
2022-08-27T09:36:24.413Z,2.90
2022-08-27T09:38:57.935Z,4.63
2022-08-27T09:41:29.745Z,3.08
2022-08-27T09:44:02.382Z,3.15
2022-08-27T09:46:32.342Z,3.45
2022-08-27T09:49:11.290Z,3.50
2022-08-27T09:51:41.718Z,3.47
2022-08-27T09:54:09.792Z,3.33
2022-08-27T09:56:48.468Z,2.80
2022-08-27T09:59:24.065Z,3.35
2022-08-27T10:02:04.376Z,3.38
2022-08-27T10:04:50.308Z,3.17
2022-08-27T10:07:42.105Z,3.30
2022-08-27T10:10:21.796Z,3.85
2022-08-27T10:13:11.668Z,3.10
2022-08-27T10:15:51.482Z,3.67
2022-08-27T10:18:33.106Z,3.88
2022-08-27T10:21:20.411Z,3.90
2022-08-27T10:24:21.593Z,3.53
2022-08-27T10:27:13.517Z,3.92
2022-08-27T10:29:55.365Z,3.63
2022-08-27T10:32:46.463Z,4.40
2022-08-27T10:35:26.994Z,4.28
2022-08-27T10:38:19.466Z,4.70
2022-08-27T10:41:12.948Z,4.03
2022-08-27T10:43:40.460Z,5.15
2022-08-27T10:46:36.886Z,4.80
2022-08-27T10:49:32.006Z,4.85
2022-08-27T10:52:21.363Z,5.20
2022-08-27T10:54:54.352Z,5.55
2022-08-27T10:57:45.501Z,3.78
2022-08-27T11:00:23.069Z,5.57
2022-08-27T11:02:55.291Z,3.95
2022-08-27T11:05:33.434Z,3.25
2022-08-27T11:08:11.829Z,5.43
2022-08-27T11:11:13.697Z,3.65
2022-08-27T11:13:51.685Z,3.70
2022-08-27T11:16:27.704Z,4.40
2022-08-27T11:19:14.086Z,3.47
2022-08-27T11:21:51.619Z,3.17
2022-08-27T11:24:47.902Z,4.55
2022-08-27T11:27:17.637Z,3.70
2022-08-27T11:30:08.726Z,2.67
2022-08-27T11:32:54.200Z,2.67
2022-08-27T11:35:32.130Z,2.53
2022-08-27T11:38:27.447Z,3.50
2022-08-27T11:41:00.271Z,3.78
2022-08-27T11:43:29.622Z,2.70
2022-08-27T11:45:59.874Z,2.50
2022-08-27T11:48:30.977Z,2.40
2022-08-27T11:51:06.354Z,2.60
2022-08-27T11:53:41.356Z,2.80
2022-08-27T11:56:25.981Z,2.65
2022-08-27T11:58:53.752Z,2.72
2022-08-27T12:01:30.334Z,2.78
2022-08-27T12:04:26.183Z,2.00
2022-08-27T12:07:08.254Z,2.92
2022-08-27T12:10:01.624Z,2.80
2022-08-27T12:13:00.801Z,2.78
2022-08-27T12:15:49.344Z,3.38
2022-08-27T12:18:32.669Z,3.30
2022-08-27T12:21:39.907Z,2.95
2022-08-27T12:24:26.464Z,3.95
2022-08-27T12:27:20.836Z,3.42
2022-08-27T12:29:51.134Z,3.22
2022-08-27T12:32:26.314Z,3.30
2022-08-27T12:35:08.572Z,6.10
2022-08-27T12:37:44.526Z,5.30
2022-08-27T12:40:19.897Z,3.30
2022-08-27T12:42:50.174Z,3.10
2022-08-27T12:45:23.576Z,6.20
2022-08-27T12:47:53.031Z,3.17
2022-08-27T12:50:26.656Z,4.38
2022-08-27T12:53:09.737Z,3.65
2022-08-27T12:56:23.764Z,3.67
2022-08-27T12:59:22.412Z,3.00
2022-08-27T13:02:14.735Z,3.30
2022-08-27T13:04:43.750Z,3.28
2022-08-27T13:07:11.805Z,3.17
2022-08-27T13:09:40.113Z,6.10
2022-08-27T13:12:16.054Z,4.25
2022-08-27T13:14:43.697Z,3.22
2022-08-27T13:17:19.648Z,4.60
2022-08-27T13:19:53.196Z,7.57
2022-08-27T13:22:26.501Z,5.88
2022-08-27T13:25:01.093Z,3.85
2022-08-27T13:27:31.316Z,3.30
2022-08-27T13:30:02.886Z,2.90
2022-08-27T13:32:31.225Z,3.47
2022-08-27T13:35:00.730Z,3.25
2022-08-27T13:37:34.244Z,4.47
2022-08-27T13:40:02.315Z,3.53
2022-08-27T13:42:31.696Z,4.13
2022-08-27T13:45:04.249Z,3.83
2022-08-27T13:47:41.158Z,3.80
2022-08-27T13:53:39.742Z,3.80
2022-08-27T13:56:09.089Z,3.35
2022-08-27T13:58:50.703Z,4.00
2022-08-27T14:01:48.002Z,5.07
2022-08-27T14:04:23.934Z,5.07
2022-08-27T14:06:52.299Z,4.15
2022-08-27T14:09:28.916Z,4.15
2022-08-27T14:12:06.629Z,4.60
2022-08-27T14:14:40.223Z,4.32
2022-08-27T14:17:35.174Z,4.20
2022-08-27T14:20:04.332Z,4.03
2022-08-27T14:22:34.363Z,3.95
2022-08-27T14:25:02.202Z,3.60
2022-08-27T14:27:29.976Z,4.13
2022-08-27T14:29:57.834Z,4.68
2022-08-27T14:32:25.234Z,4.40
2022-08-27T14:34:53.589Z,4.60
2022-08-27T14:37:20.997Z,5.05
2022-08-27T14:39:48.465Z,5.15
2022-08-27T14:42:17.755Z,6.20
2022-08-27T14:44:47.557Z,10.85
2022-08-27T14:47:16.639Z,4.82
2022-08-27T14:49:45.837Z,5.13
2022-08-27T14:52:14.052Z,4.10
2022-08-27T14:54:42.322Z,5.18
2022-08-27T14:57:10.027Z,5.10
2022-08-27T14:59:38.600Z,5.35
2022-08-27T15:02:11.334Z,5.03
2022-08-27T15:04:39.050Z,4.57
2022-08-27T15:07:11.271Z,13.20
2022-08-27T15:09:38.672Z,24.85
2022-08-27T15:12:06.712Z,38.88
2022-08-27T15:14:43.543Z,8.95
2022-08-27T15:17:33.334Z,13.50
2022-08-27T15:19:58.758Z,12.43
2022-08-27T15:22:33.841Z,10.63
2022-08-27T15:25:02.134Z,11.40
2022-08-27T15:27:38.287Z,9.32
2022-08-27T15:30:09.048Z,7.90
2022-08-27T15:32:41.012Z,8.25
2022-08-27T15:35:14.104Z,9.63
2022-08-27T15:37:42.698Z,6.75
2022-08-27T15:40:12.065Z,8.10
2022-08-27T15:42:41.030Z,8.82
2022-08-27T15:45:14.685Z,8.88
2022-08-27T15:47:45.077Z,9.77
2022-08-27T15:50:13.563Z,10.73
2022-08-27T15:52:41.740Z,14.80
2022-08-27T15:55:21.049Z,21.75
2022-08-27T15:57:54.443Z,19.02
2022-08-27T16:00:26.256Z,15.00
2022-08-27T16:02:54.293Z,18.73
2022-08-27T16:05:22.990Z,9.57
2022-08-27T16:07:51.198Z,7.60
2022-08-27T16:10:19.051Z,5.75
2022-08-27T16:12:49.223Z,7.10
2022-08-27T16:15:17.699Z,7.10
2022-08-27T16:17:45.578Z,8.30
2022-08-27T16:20:15.829Z,10.25
2022-08-27T16:22:44.635Z,6.65
2022-08-27T16:25:17.825Z,6.13
2022-08-27T16:27:48.866Z,8.60
2022-08-27T16:30:17.692Z,8.10
2022-08-27T16:32:50.941Z,7.15
2022-08-27T16:35:20.810Z,7.55
2022-08-27T16:37:48.670Z,7.45
2022-08-27T16:40:16.727Z,6.18
2022-08-27T16:42:50.026Z,7.88
2022-08-27T16:45:22.743Z,10.43
2022-08-27T16:48:09.218Z,10.27
2022-08-27T16:50:37.131Z,9.85
2022-08-27T16:53:10.191Z,8.55
2022-08-27T16:55:37.960Z,8.32
2022-08-27T16:58:19.157Z,9.18
2022-08-27T17:00:50.399Z,9.18
2022-08-27T17:03:18.908Z,7.43
2022-08-27T17:05:46.656Z,18.90
2022-08-27T17:08:19.672Z,16.67
2022-08-27T17:10:50.158Z,8.68
2022-08-27T17:13:21.107Z,7.63
2022-08-27T17:15:56.329Z,7.30
2022-08-27T17:18:28.187Z,7.10
2022-08-27T17:20:57.432Z,9.10
2022-08-27T17:23:40.818Z,7.38
2022-08-27T17:26:10.575Z,7.97
2022-08-27T17:28:40.951Z,7.35
2022-08-27T17:31:10.190Z,9.10
2022-08-27T17:33:40.423Z,7.85
2022-08-27T17:36:09.540Z,7.07
2022-08-27T17:38:38.954Z,8.77
2022-08-27T17:41:32.981Z,34.30
2022-08-27T17:44:17.296Z,8.77
2022-08-27T17:46:44.939Z,10.25
2022-08-27T17:49:13.969Z,9.57
2022-08-27T17:51:41.800Z,8.05
2022-08-27T17:54:17.581Z,7.97
2022-08-27T17:56:45.236Z,6.53
2022-08-27T17:59:12.910Z,7.20
2022-08-27T18:01:41.912Z,6.90
2022-08-27T18:04:09.889Z,7.13
2022-08-27T18:06:38.046Z,7.25
2022-08-27T18:09:09.505Z,7.40
2022-08-27T18:11:39.096Z,9.45
2022-08-27T18:14:12.152Z,8.05
2022-08-27T18:16:43.048Z,9.00
2022-08-27T18:19:10.694Z,6.93
2022-08-27T18:21:46.283Z,9.20
2022-08-27T18:24:15.451Z,8.68
2022-08-27T18:26:44.018Z,8.52
2022-08-27T18:29:13.766Z,7.45
2022-08-27T18:31:41.961Z,8.82
2022-08-27T18:34:09.844Z,7.95
2022-08-27T18:36:37.829Z,7.43
2022-08-27T18:39:07.412Z,7.03
2022-08-27T18:41:37.516Z,7.85
2022-08-27T18:44:05.397Z,10.77
2022-08-27T18:46:47.699Z,13.48
2022-08-27T18:49:15.508Z,10.85
2022-08-27T18:51:49.345Z,11.10
2022-08-27T18:54:21.237Z,8.77
2022-08-27T18:56:48.904Z,10.30
2022-08-27T18:59:21.982Z,8.45
2022-08-27T19:01:49.799Z,9.00
2022-08-27T19:04:19.209Z,8.23
2022-08-27T19:06:47.095Z,8.60
2022-08-27T19:09:16.253Z,7.60
2022-08-27T19:11:53.678Z,12.52
2022-08-27T19:14:21.376Z,10.25
2022-08-27T19:16:54.051Z,8.20
2022-08-27T19:19:24.280Z,8.52
2022-08-27T19:21:52.465Z,8.38
2022-08-27T19:24:24.826Z,8.45
2022-08-27T19:26:56.146Z,9.00
2022-08-27T19:29:24.197Z,9.43
2022-08-27T19:31:52.162Z,7.97
2022-08-27T19:34:30.136Z,8.45
2022-08-27T19:37:01.769Z,7.47
2022-08-27T19:39:30.015Z,8.27
2022-08-27T19:41:57.665Z,7.82
2022-08-27T19:44:25.242Z,7.15
2022-08-27T19:46:53.348Z,8.02
2022-08-27T19:49:21.783Z,7.75
2022-08-27T19:51:49.211Z,9.32
2022-08-27T19:54:16.728Z,9.57
2022-08-27T19:56:44.202Z,8.80
2022-08-27T19:59:20.453Z,9.98
2022-08-27T20:01:48.935Z,8.40
2022-08-27T20:04:16.568Z,7.97
2022-08-27T20:06:44.437Z,8.30
2022-08-27T20:09:16.098Z,8.35
2022-08-27T20:11:45.969Z,8.30
2022-08-27T20:14:13.953Z,8.95
2022-08-27T20:16:42.527Z,8.48
2022-08-27T20:19:10.614Z,14.38
2022-08-27T20:21:38.491Z,17.88
2022-08-27T20:24:06.490Z,8.13
2022-08-27T20:26:34.217Z,16.38
2022-08-27T20:29:02.275Z,8.45
2022-08-27T20:31:30.405Z,7.53
2022-08-27T20:33:59.370Z,7.93
2022-08-27T20:36:29.984Z,7.68
2022-08-27T20:38:57.746Z,8.05
2022-08-27T20:41:25.391Z,7.20
2022-08-27T20:43:53.478Z,8.15
2022-08-27T20:46:24.356Z,7.55
2022-08-27T20:48:52.371Z,6.90
2022-08-27T20:51:19.885Z,7.63
2022-08-27T20:53:47.450Z,8.25
2022-08-27T20:56:15.050Z,9.18
2022-08-27T20:59:01.142Z,8.27
2022-08-27T21:01:28.788Z,12.52
2022-08-27T21:03:58.650Z,7.97
2022-08-27T21:06:26.721Z,7.65
2022-08-27T21:08:54.245Z,7.78
2022-08-27T21:11:22.108Z,7.63
2022-08-27T21:13:56.186Z,9.57
2022-08-27T21:16:26.793Z,15.43
2022-08-27T21:18:55.766Z,29.58
2022-08-27T21:21:23.840Z,12.63
2022-08-27T21:23:51.645Z,17.00
2022-08-27T21:26:22.180Z,7.82
2022-08-27T21:28:49.683Z,12.23
2022-08-27T21:31:26.957Z,10.40
2022-08-27T21:33:54.996Z,7.90
2022-08-27T21:36:22.635Z,7.40
2022-08-27T21:38:50.346Z,8.05
2022-08-27T21:41:18.399Z,7.15
2022-08-27T21:43:46.064Z,7.15
2022-08-27T21:46:14.197Z,8.10
2022-08-27T21:48:43.154Z,7.50
2022-08-27T21:51:24.386Z,9.13
2022-08-27T21:53:52.403Z,7.15
2022-08-27T21:56:19.904Z,8.68
2022-08-27T21:58:47.477Z,8.60
2022-08-27T22:01:15.267Z,8.05
2022-08-27T22:03:47.185Z,7.85
2022-08-27T22:06:15.031Z,8.07
2022-08-27T22:08:44.217Z,10.57
2022-08-27T22:11:15.160Z,8.40
2022-08-27T22:13:50.204Z,7.90
2022-08-27T22:16:21.404Z,8.05
2022-08-27T22:18:54.269Z,8.00
2022-08-27T22:21:25.273Z,7.93
2022-08-27T22:23:52.768Z,8.00
2022-08-27T22:26:21.118Z,7.95
2022-08-27T22:28:48.743Z,7.65
2022-08-27T22:31:16.663Z,7.72
2022-08-27T22:33:44.369Z,7.70
2022-08-27T22:36:11.858Z,7.82
2022-08-27T22:38:40.001Z,8.13
2022-08-27T22:41:07.686Z,8.20
2022-08-27T22:43:36.474Z,7.95
2022-08-27T22:46:03.878Z,8.75
2022-08-27T22:48:31.741Z,8.73
2022-08-27T22:50:59.139Z,7.80
2022-08-27T22:53:26.633Z,8.15
2022-08-27T22:55:54.188Z,9.10
2022-08-27T22:58:24.461Z,8.05
2022-08-27T23:00:53.423Z,8.60
2022-08-27T23:03:20.958Z,10.25
2022-08-27T23:05:48.480Z,9.50
2022-08-27T23:08:16.098Z,8.93
2022-08-27T23:10:46.168Z,8.23
2022-08-27T23:13:13.541Z,8.15
2022-08-27T23:15:42.269Z,8.35
2022-08-27T23:18:10.456Z,8.32
2022-08-27T23:20:37.905Z,8.18
2022-08-27T23:23:08.069Z,8.73
2022-08-27T23:25:54.029Z,10.23
2022-08-27T23:28:21.951Z,9.55
2022-08-27T23:30:49.694Z,15.40
2022-08-27T23:33:17.276Z,13.80
2022-08-27T23:35:50.412Z,8.38
2022-08-27T23:38:19.337Z,8.60
2022-08-27T23:40:47.720Z,8.70
2022-08-27T23:43:15.250Z,8.57
2022-08-27T23:45:43.579Z,8.38
2022-08-27T23:48:11.557Z,8.70
2022-08-27T23:50:40.842Z,8.88
2022-08-27T23:53:08.724Z,8.75
2022-08-27T23:55:37.790Z,8.50
2022-08-27T23:58:06.916Z,8.23
